33 minutes ago
Runway Headwind Crosswind Length
4 kt 2 kt 9,022 ft
4 kt 2 kt 6,778 ft
METAR AYPY 202200Z VRB05KT 9999 FU HZ SCT050 25/22 Q1012

METAR definition | Embed

METAR Jacksons International Airport

Jacksons International Airport is a large airport in Port Moresby, Papua New Guinea. The airport has 2 runways: 14L/32R (9,022 ft) and 14R/32L

This report was made for Jacksons International Airport on June 21, 2021 8:00 am, local time.

Airport observations

There is little or no wind from a variable direction.

Visibility is 6¼ mi or more.

There are scattered clouds at an altitude of 5,000 ft. No ceiling has been observed.

Current weather is smoke, haze. The temperature and wind chill are 77 °F. The dew point is 72 °F, the relative humidity is 83%. The air pressure at sea level is 29.88 inHg (QNH).

Daylight period

Today the sun rises at 6:25 am and sets at 6:00 pm. This applies to Jacksons International Airport, the universal daylight period may be different. The difference between the local time and UTC is +10 hour. Daylight saving time is currently in progress.

Historical data

Donate

Will you help us to keep Metar-Taf.com running?
Your contribution helps further development of the site and to pay for the expenses.

No more ads

Are you donating $ 5 or more? Then we'll never show you ads again, as a token of our eternal gratitude!
Log in before you donate

Do you want the flying weather of Jacksons International Airport on your website? Read more   Free!